Time;durP1;ratioP1;P1;durP2;ratioP2;P2;SDS_P1;SDS_P2;PMS_P1;PMS_P2;Temp;Humidity;BMP_temperature;BMP_pressure;BME280_temperature;BME280_humidity;BME280_pressure;Samples;Min_cycle;Max_cycle;Signal;HPM_P1;HPM_P2
2023/10/27 00:01:04;;;;;;;26.67;12.30;;;;;;;-141.97;nan;47726.66;5031238;28;20606;-84
2023/10/27 00:03:29;;;;;;;27.60;11.97;;;;;;;-141.97;nan;47718.97;5031399;28;20178;-84
2023/10/27 00:05:55;;;;;;;27.17;12.40;;;;;;;-141.97;nan;47695.91;5031465;28;20297;-84
2023/10/27 00:08:20;;;;;;;24.90;12.17;;;;;;;-141.97;nan;47661.31;5031257;28;20166;-84
2023/10/27 00:10:45;;;;;;;29.60;13.87;;;;;;;-141.97;nan;47780.47;5031636;28;20706;-84
2023/10/27 00:13:11;;;;;;;27.67;13.33;;;;;;;-141.97;nan;47840.06;5013810;28;20214;-84
2023/10/27 00:15:36;;;;;;;28.30;12.80;;;;;;;-141.97;nan;47849.69;5020627;28;20237;-84
2023/10/27 00:18:02;;;;;;;26.47;11.97;;;;;;;-141.97;nan;47738.19;5015933;28;20166;-84
2023/10/27 00:20:27;;;;;;;18.07;10.43;;;;;;;-141.97;nan;47770.88;5018231;28;20526;-84
2023/10/27 00:22:53;;;;;;;25.93;10.27;;;;;;;-141.97;nan;47853.53;5031251;28;20556;-83
2023/10/27 00:25:18;;;;;;;15.23;9.43;;;;;;;-141.97;nan;47922.72;5031195;28;20583;-83
2023/10/27 00:27:43;;;;;;;20.83;9.63;;;;;;;-141.97;nan;47669.00;5030998;28;20174;-83
2023/10/27 00:30:09;;;;;;;20.17;9.73;;;;;;;-141.97;nan;47684.38;5012948;28;20161;-84
2023/10/27 00:32:36;;;;;;;20.00;9.37;;;;;;;-141.97;nan;47853.53;5031454;28;20873;-83
2023/10/27 00:35:05;;;;;;;21.90;10.00;;;;;;;-141.97;nan;47651.69;5031450;28;20182;-83
2023/10/27 00:37:34;;;;;;;20.87;9.77;;;;;;;-141.97;nan;47876.59;5031898;28;20208;-85
2023/10/27 00:40:00;;;;;;;25.50;9.60;;;;;;;-141.97;nan;47697.84;5024630;28;20165;-85
2023/10/27 00:42:26;;;;;;;21.20;10.00;;;;;;;-141.97;nan;47632.47;5051229;28;20244;-83
2023/10/27 00:44:51;;;;;;;21.70;9.20;;;;;;;-141.97;nan;47755.50;5032806;28;20287;-83
2023/10/27 00:47:17;;;;;;;24.37;9.30;;;;;;;-141.97;nan;47738.19;5049219;28;20260;-84
2023/10/27 00:49:43;;;;;;;25.40;10.37;;;;;;;-141.97;nan;47859.28;5051324;28;20553;-83
2023/10/27 00:52:09;;;;;;;22.27;9.83;;;;;;;-141.97;nan;47890.06;5051004;28;20182;-84
2023/10/27 00:54:35;;;;;;;19.57;9.50;;;;;;;-141.97;nan;47701.69;5031892;28;20174;-83
2023/10/27 00:57:02;;;;;;;19.67;9.70;;;;;;;-141.97;nan;47747.81;5030264;28;20197;-84
2023/10/27 00:59:27;;;;;;;25.87;10.23;;;;;;;-141.97;nan;47724.75;5047457;28;20580;-84
2023/10/27 01:01:53;;;;;;;24.33;10.23;;;;;;;-141.97;nan;47694.00;5033281;28;20259;-84
2023/10/27 01:04:18;;;;;;;24.53;10.77;;;;;;;-141.97;nan;47653.63;5039296;28;20174;-85
2023/10/27 01:06:44;;;;;;;20.57;10.10;;;;;;;-141.97;nan;47703.59;5030631;28;20733;-83
2023/10/27 01:09:09;;;;;;;24.17;10.30;;;;;;;-141.97;nan;47818.94;5027375;28;20182;-85
2023/10/27 01:11:35;;;;;;;26.03;10.70;;;;;;;-141.97;nan;47743.97;5049508;28;20197;-83
2023/10/27 01:14:01;;;;;;;23.53;10.77;;;;;;;-141.97;nan;47653.63;5039132;28;20269;-83
2023/10/27 01:16:26;;;;;;;27.17;10.93;;;;;;;-141.97;nan;47755.50;5029152;28;20229;-83
2023/10/27 01:18:51;;;;;;;18.23;9.87;;;;;;;-141.97;nan;47826.63;5036803;28;20169;-83
2023/10/27 01:21:17;;;;;;;20.53;10.00;;;;;;;-141.97;nan;47863.13;5019394;28;20174;-84
2023/10/27 01:23:42;;;;;;;24.80;10.10;;;;;;;-141.97;nan;47847.75;5021137;28;20209;-83
2023/10/27 01:26:07;;;;;;;21.90;9.70;;;;;;;-141.97;nan;47765.09;5039107;28;20169;-83
2023/10/27 01:28:33;;;;;;;22.83;9.50;;;;;;;-141.97;nan;47736.28;5038492;28;20166;-85
2023/10/27 01:30:59;;;;;;;20.50;9.97;;;;;;;-141.97;nan;47895.81;5019180;28;20194;-85
2023/10/27 01:33:25;;;;;;;20.50;9.53;;;;;;;-141.97;nan;47770.88;5019579;28;20200;-84
2023/10/27 01:35:54;;;;;;;20.53;9.37;;;;;;;-141.97;nan;47845.84;5023647;28;20212;-85
2023/10/27 01:38:31;;;;;;;25.30;10.43;;;;;;;-141.97;nan;47692.06;5028939;28;20164;-85
2023/10/27 01:40:57;;;;;;;18.87;10.03;;;;;;;-141.97;nan;47499.84;5027567;28;20205;-85
2023/10/27 01:43:22;;;;;;;19.93;9.83;;;;;;;-141.97;nan;47569.06;5045650;28;20208;-85
2023/10/27 01:45:48;;;;;;;21.80;9.13;;;;;;;-141.97;nan;47530.59;5023831;28;20181;-85
2023/10/27 01:48:13;;;;;;;22.97;10.20;;;;;;;-141.97;nan;47705.53;5041517;28;20201;-84
2023/10/27 01:50:39;;;;;;;20.27;9.20;;;;;;;-141.97;nan;47761.25;5040183;28;20218;-85
2023/10/27 01:53:04;;;;;;;20.17;9.07;;;;;;;-141.97;nan;47726.66;5038725;28;20212;-86
2023/10/27 01:55:29;;;;;;;22.60;9.80;;;;;;;-141.97;nan;47703.59;5034990;28;20232;-86
2023/10/27 01:57:55;;;;;;;22.67;9.37;;;;;;;-141.97;nan;47761.25;5035686;28;20170;-86
2023/10/27 02:00:20;;;;;;;24.47;9.83;;;;;;;-141.97;nan;47857.38;5017681;28;20623;-85
2023/10/27 02:02:46;;;;;;;24.70;9.87;;;;;;;-141.97;nan;47607.50;5028777;28;20212;-85
2023/10/27 02:05:12;;;;;;;22.77;9.83;;;;;;;-141.97;nan;47803.56;5033488;28;20708;-85
2023/10/27 02:07:38;;;;;;;19.80;10.20;;;;;;;-141.97;nan;47745.88;5035538;28;20171;-86
2023/10/27 02:10:04;;;;;;;24.23;10.20;;;;;;;-141.97;nan;47634.41;5047533;28;20185;-85
2023/10/27 02:12:29;;;;;;;23.17;10.60;;;;;;;-141.97;nan;47705.53;5052804;28;20269;-83
2023/10/27 02:14:55;;;;;;;25.73;11.17;;;;;;;-141.97;nan;47697.84;5024698;28;20642;-84
2023/10/27 02:17:20;;;;;;;24.23;10.77;;;;;;;-141.97;nan;47836.22;5033206;28;20189;-84
2023/10/27 02:19:47;;;;;;;26.60;10.97;;;;;;;-141.97;nan;47768.94;5032254;28;20607;-86
2023/10/27 02:22:13;;;;;;;21.97;10.33;;;;;;;-141.97;nan;47803.56;5029345;28;20252;-84
2023/10/27 02:24:39;;;;;;;24.67;11.20;;;;;;;-141.97;nan;47765.09;5045937;28;20242;-84
2023/10/27 02:27:05;;;;;;;25.03;11.00;;;;;;;-141.97;nan;47757.41;5015289;28;20660;-84
2023/10/27 02:29:30;;;;;;;26.57;11.03;;;;;;;-141.97;nan;47640.16;5015295;28;20170;-85
2023/10/27 02:31:56;;;;;;;22.10;11.43;;;;;;;-141.97;nan;47703.59;5016878;28;20284;-85
2023/10/27 02:34:21;;;;;;;27.53;10.50;;;;;;;-141.97;nan;47836.22;5032956;28;20627;-85
2023/10/27 02:36:47;;;;;;;23.17;10.63;;;;;;;-141.97;nan;47834.31;5041343;28;20188;-84
2023/10/27 02:39:12;;;;;;;24.23;10.57;;;;;;;-141.97;nan;47665.16;5028153;28;20225;-84
2023/10/27 02:41:38;;;;;;;23.50;10.80;;;;;;;-141.97;nan;47845.84;5030814;28;20181;-84
2023/10/27 02:44:03;;;;;;;20.50;10.50;;;;;;;-141.97;nan;47684.38;5027713;28;20209;-85
2023/10/27 02:46:29;;;;;;;23.40;10.97;;;;;;;-141.97;nan;47622.88;5046913;28;20158;-85
2023/10/27 02:48:55;;;;;;;25.00;12.27;;;;;;;-141.97;nan;47768.94;5048851;28;20226;-84
2023/10/27 02:51:21;;;;;;;24.73;10.77;;;;;;;-141.97;nan;47703.59;5049828;28;20236;-84
2023/10/27 02:53:46;;;;;;;26.93;11.10;;;;;;;-141.97;nan;47720.91;5048077;28;20189;-84
2023/10/27 02:56:12;;;;;;;21.77;10.63;;;;;;;-141.97;nan;47676.69;5028985;28;20170;-84
2023/10/27 02:58:37;;;;;;;25.30;10.83;;;;;;;-141.97;nan;47826.63;5048210;28;20672;-83
2023/10/27 03:01:09;;;;;;;30.03;11.37;;;;;;;-141.97;nan;47638.25;5046841;28;20190;-84
2023/10/27 03:03:38;;;;;;;24.97;11.20;;;;;;;-141.97;nan;47851.59;5021755;28;20196;-84
2023/10/27 03:06:03;;;;;;;28.53;12.87;;;;;;;-141.97;nan;47642.09;5035723;28;20170;-85
2023/10/27 03:08:31;;;;;;;29.03;13.17;;;;;;;-141.97;nan;47765.09;5035294;28;20154;-84
2023/10/27 03:10:56;;;;;;;31.00;13.20;;;;;;;-141.97;nan;47676.69;5018283;28;20633;-84
2023/10/27 03:13:21;;;;;;;26.83;12.70;;;;;;;-141.97;nan;47734.34;5013386;28;20821;-83
2023/10/27 03:15:47;;;;;;;36.33;16.53;;;;;;;-141.97;nan;47761.25;5015279;28;20170;-83
2023/10/27 03:18:12;;;;;;;51.30;22.63;;;;;;;-141.97;nan;47638.25;5026852;28;20163;-82
2023/10/27 03:20:38;;;;;;;52.53;23.23;;;;;;;-141.97;nan;47778.56;5033650;28;20167;-83
2023/10/27 03:23:03;;;;;;;41.13;19.03;;;;;;;-141.97;nan;47709.38;5035715;28;20155;-84
2023/10/27 03:25:29;;;;;;;39.53;16.83;;;;;;;-141.97;nan;47645.94;5034545;28;20186;-83
2023/10/27 03:27:54;;;;;;;25.83;13.43;;;;;;;-141.97;nan;47715.13;5016310;28;20198;-83
2023/10/27 03:30:21;;;;;;;29.10;13.63;;;;;;;-141.97;nan;47651.69;5012152;28;20265;-83
2023/10/27 03:32:47;;;;;;;32.17;13.20;;;;;;;-141.97;nan;47732.44;5013116;28;20173;-84
2023/10/27 03:35:12;;;;;;;29.63;12.63;;;;;;;-141.97;nan;47701.69;5026655;28;20182;-83
2023/10/27 03:37:38;;;;;;;27.30;12.37;;;;;;;-141.97;nan;47815.09;5019313;28;20167;-83
2023/10/27 03:40:04;;;;;;;29.83;12.63;;;;;;;-141.97;nan;47778.56;5011489;28;20699;-83
2023/10/27 03:42:29;;;;;;;24.77;11.87;;;;;;;-141.97;nan;47845.84;5003984;28;20719;-85
2023/10/27 03:44:55;;;;;;;24.77;12.33;;;;;;;-141.97;nan;47840.06;5015793;28;20190;-85
2023/10/27 03:47:20;;;;;;;29.17;12.73;;;;;;;-141.97;nan;47632.47;5011309;28;20174;-84
2023/10/27 03:49:46;;;;;;;27.23;12.40;;;;;;;-141.97;nan;47818.94;5011503;28;20236;-84
2023/10/27 03:52:11;;;;;;;28.23;12.13;;;;;;;-141.97;nan;47895.81;5011199;28;20202;-84
2023/10/27 03:54:36;;;;;;;27.10;12.73;;;;;;;-141.97;nan;47709.38;5013478;28;20205;-84
2023/10/27 03:57:02;;;;;;;29.03;12.37;;;;;;;-141.97;nan;47780.47;5014956;28;20756;-85
2023/10/27 03:59:28;;;;;;;27.67;13.00;;;;;;;-141.97;nan;47784.34;5033955;28;20238;-85
2023/10/27 04:01:53;;;;;;;27.63;12.13;;;;;;;-141.97;nan;47622.88;5031193;28;20256;-86
2023/10/27 04:04:19;;;;;;;25.43;12.87;;;;;;;-141.97;nan;47717.06;5030648;28;20242;-87
2023/10/27 04:06:45;;;;;;;27.73;12.87;;;;;;;-141.97;nan;47784.34;5012508;28;20643;-85
2023/10/27 04:09:11;;;;;;;27.73;12.30;;;;;;;-141.97;nan;47718.97;5015223;28;20195;-85
2023/10/27 04:11:36;;;;;;;30.43;13.43;;;;;;;-141.97;nan;47913.13;5013864;28;20250;-85
2023/10/27 04:14:04;;;;;;;25.57;13.13;;;;;;;-141.97;nan;47740.13;5026411;28;20252;-84
2023/10/27 04:16:29;;;;;;;30.07;13.73;;;;;;;-141.97;nan;47776.63;5015136;28;20186;-85
2023/10/27 04:18:55;;;;;;;28.27;13.40;;;;;;;-141.97;nan;47767.03;5032744;28;20550;-85
2023/10/27 04:21:21;;;;;;;26.73;13.20;;;;;;;-141.97;nan;47649.78;5032381;28;20158;-85
2023/10/27 04:23:47;;;;;;;33.67;13.90;;;;;;;-141.97;nan;47842.00;5031424;28;20254;-85
2023/10/27 04:26:13;;;;;;;28.33;14.50;;;;;;;-141.97;nan;47726.66;5030742;28;20556;-86
2023/10/27 04:28:39;;;;;;;29.90;13.87;;;;;;;-141.97;nan;47724.75;5031906;28;20253;-86
2023/10/27 04:31:05;;;;;;;28.87;13.10;;;;;;;-141.97;nan;47636.31;5031329;28;20268;-86
2023/10/27 04:33:30;;;;;;;31.93;13.77;;;;;;;-141.97;nan;47849.69;5031620;28;20188;-84
2023/10/27 04:35:56;;;;;;;25.73;13.20;;;;;;;-141.97;nan;47617.09;5013157;28;20181;-85
2023/10/27 04:38:21;;;;;;;26.03;13.53;;;;;;;-141.97;nan;47626.72;5014361;28;20197;-85
2023/10/27 04:40:48;;;;;;;23.00;13.17;;;;;;;-141.97;nan;47676.69;5031079;28;20169;-86
2023/10/27 04:43:14;;;;;;;32.87;14.87;;;;;;;-141.97;nan;47759.34;5030739;28;20182;-85
2023/10/27 04:45:39;;;;;;;41.57;15.60;;;;;;;-141.97;nan;47865.06;5031499;28;20173;-86
2023/10/27 04:48:05;;;;;;;58.43;24.27;;;;;;;-141.97;nan;47822.78;5031484;28;20227;-84
2023/10/27 04:50:33;;;;;;;80.37;31.57;;;;;;;-141.97;nan;47607.50;5016179;28;20251;-86
2023/10/27 04:52:59;;;;;;;75.17;32.67;;;;;;;-141.97;nan;47865.06;5031537;28;20539;-85
2023/10/27 04:55:25;;;;;;;75.40;27.43;;;;;;;-141.97;nan;47799.72;5013142;28;20184;-84
2023/10/27 04:57:50;;;;;;;51.00;22.17;;;;;;;-141.97;nan;47868.91;5029367;28;20233;-85
2023/10/27 05:00:16;;;;;;;40.87;18.67;;;;;;;-141.97;nan;47674.78;5060068;28;21124;-85
2023/10/27 05:02:41;;;;;;;37.37;18.53;;;;;;;-141.97;nan;47663.22;5046745;28;20169;-84
2023/10/27 05:05:08;;;;;;;46.17;20.37;;;;;;;-141.97;nan;47690.16;5068282;28;20162;-85
2023/10/27 05:07:34;;;;;;;64.23;29.63;;;;;;;-141.97;nan;47705.53;5056949;28;20162;-84
2023/10/27 05:09:59;;;;;;;68.53;28.57;;;;;;;-141.97;nan;47576.75;5026969;28;20182;-84
2023/10/27 05:12:25;;;;;;;61.20;26.93;;;;;;;-141.97;nan;47755.50;5018472;28;20221;-83
2023/10/27 05:14:50;;;;;;;48.30;24.17;;;;;;;-141.97;nan;47692.06;5036902;28;20229;-85
2023/10/27 05:17:17;;;;;;;72.17;29.17;;;;;;;-141.97;nan;47722.81;5034622;28;20169;-84
2023/10/27 05:19:42;;;;;;;59.57;27.53;;;;;;;-141.97;nan;47845.84;5037831;28;20516;-85
2023/10/27 05:22:08;;;;;;;68.90;31.27;;;;;;;-141.97;nan;47870.81;5014018;28;20211;-87
2023/10/27 05:24:34;;;;;;;87.33;32.17;;;;;;;-141.97;nan;47724.75;5032404;28;20261;-87
2023/10/27 05:27:00;;;;;;;105.17;33.23;;;;;;;-141.97;nan;47734.34;5031824;28;20291;-83
2023/10/27 05:29:26;;;;;;;98.27;32.93;;;;;;;-141.97;nan;47684.38;5031876;28;20562;-89
2023/10/27 05:31:52;;;;;;;87.20;28.90;;;;;;;-141.97;nan;47657.47;5013849;28;20208;-87
2023/10/27 05:34:18;;;;;;;95.57;28.40;;;;;;;-141.97;nan;47749.72;5013966;28;20261;-88
2023/10/27 05:36:43;;;;;;;72.67;25.63;;;;;;;-141.97;nan;47584.44;5031929;28;20209;-87
2023/10/27 05:39:16;;;;;;;60.73;25.27;;;;;;;-141.97;nan;47605.56;5014398;28;20178;-88
2023/10/27 05:41:46;;;;;;;53.63;25.03;;;;;;;-141.97;nan;47676.69;5019193;28;20165;-85
2023/10/27 05:44:11;;;;;;;60.53;28.03;;;;;;;-141.97;nan;47738.19;5014118;28;20166;-84
2023/10/27 05:46:37;;;;;;;99.83;42.50;;;;;;;-141.97;nan;47651.69;5029772;28;20220;-85
2023/10/27 05:49:04;;;;;;;123.67;51.43;;;;;;;-141.97;nan;47743.97;5013344;28;20649;-85
2023/10/27 05:51:30;;;;;;;128.57;51.93;;;;;;;-141.97;nan;47717.06;5012805;28;20197;-84
2023/10/27 05:53:55;;;;;;;105.47;44.77;;;;;;;-141.97;nan;47924.66;5030763;28;20224;-84
2023/10/27 05:56:21;;;;;;;72.13;33.40;;;;;;;-141.97;nan;47857.38;5032543;28;20186;-86
2023/10/27 05:58:47;;;;;;;62.83;26.80;;;;;;;-141.97;nan;47592.13;5031547;28;20553;-86
2023/10/27 06:01:12;;;;;;;54.03;22.23;;;;;;;-141.97;nan;47690.16;5038170;28;20247;-83
2023/10/27 06:03:38;;;;;;;42.00;18.13;;;;;;;-141.97;nan;47799.72;5025925;28;20657;-85
2023/10/27 06:06:03;;;;;;;42.00;17.83;;;;;;;-141.97;nan;47753.56;5044362;28;20174;-85
2023/10/27 06:08:29;;;;;;;39.03;17.90;;;;;;;-141.97;nan;47770.88;5037868;28;20221;-85
2023/10/27 06:10:54;;;;;;;35.60;17.33;;;;;;;-141.97;nan;47792.03;5034020;28;20190;-86
2023/10/27 06:13:20;;;;;;;36.37;16.23;;;;;;;-141.97;nan;47757.41;5037298;28;20720;-85
2023/10/27 06:15:45;;;;;;;36.20;16.20;;;;;;;-141.97;nan;47678.63;5045784;28;20258;-86
2023/10/27 06:18:11;;;;;;;36.23;16.40;;;;;;;-141.97;nan;47703.59;5022363;28;20166;-85
2023/10/27 06:20:36;;;;;;;38.83;16.37;;;;;;;-141.97;nan;47624.78;5018347;28;20172;-86
2023/10/27 06:23:02;;;;;;;38.90;16.37;;;;;;;-141.97;nan;47611.34;5036069;28;20607;-83
2023/10/27 06:25:27;;;;;;;32.60;16.17;;;;;;;-141.97;nan;47695.91;5038142;28;20591;-87
2023/10/27 06:27:54;;;;;;;38.30;15.60;;;;;;;-141.97;nan;47742.03;5034414;28;20232;-85
2023/10/27 06:30:20;;;;;;;42.50;18.37;;;;;;;-141.97;nan;47676.69;5024049;28;20169;-86
2023/10/27 06:32:47;;;;;;;45.93;17.87;;;;;;;-141.97;nan;47730.50;5019616;28;20202;-86
2023/10/27 06:35:13;;;;;;;57.13;22.13;;;;;;;-141.97;nan;47734.34;5036652;28;20253;-86
2023/10/27 06:37:38;;;;;;;56.77;26.20;;;;;;;-141.97;nan;47594.03;5029429;28;20174;-85
2023/10/27 06:40:04;;;;;;;48.43;25.87;;;;;;;-141.97;nan;47663.22;5015852;28;20657;-86
2023/10/27 06:42:30;;;;;;;51.83;23.73;;;;;;;-141.97;nan;47622.88;5015466;28;20188;-85
2023/10/27 06:44:56;;;;;;;65.57;19.43;;;;;;;-141.97;nan;47546.00;5032583;28;20166;-87
2023/10/27 06:47:21;;;;;;;58.30;17.97;;;;;;;-141.97;nan;47770.88;5032858;28;20162;-85
2023/10/27 06:49:47;;;;;;;71.03;21.57;;;;;;;-141.97;nan;47753.56;5016045;28;20170;-84
2023/10/27 06:52:13;;;;;;;72.60;24.93;;;;;;;-141.97;nan;47859.28;5032664;28;20197;-85
2023/10/27 06:54:40;;;;;;;55.60;24.97;;;;;;;-141.97;nan;47909.28;5015576;28;20170;-85
2023/10/27 06:57:07;;;;;;;58.40;23.97;;;;;;;-141.97;nan;47653.63;5050346;28;20174;-84
2023/10/27 06:59:32;;;;;;;57.47;25.37;;;;;;;-141.97;nan;47611.34;5054176;28;20170;-85
2023/10/27 07:01:59;;;;;;;54.80;24.27;;;;;;;-141.97;nan;47628.63;5052408;28;20157;-86
2023/10/27 07:04:26;;;;;;;59.07;25.93;;;;;;;-141.97;nan;47715.13;5043164;28;20386;-87
2023/10/27 07:06:51;;;;;;;66.70;27.43;;;;;;;-141.97;nan;47730.50;5017511;28;20190;-86
2023/10/27 07:09:17;;;;;;;65.73;24.97;;;;;;;-141.97;nan;47874.69;5016040;28;20177;-85
2023/10/27 07:11:42;;;;;;;62.10;24.40;;;;;;;-141.97;nan;47676.69;5032455;28;20193;-87
2023/10/27 07:14:09;;;;;;;43.00;18.23;;;;;;;-141.97;nan;47801.63;5032386;28;20579;-87
2023/10/27 07:16:34;;;;;;;35.00;15.93;;;;;;;-141.97;nan;47726.66;5015255;28;20637;-89
2023/10/27 07:18:59;;;;;;;46.40;16.20;;;;;;;-141.97;nan;47686.31;5020810;28;20173;-87
2023/10/27 07:21:25;;;;;;;40.23;15.90;;;;;;;-141.97;nan;47569.06;5029722;28;20193;-87
2023/10/27 07:23:50;;;;;;;39.47;16.73;;;;;;;-141.97;nan;47742.03;5034826;28;20166;-86
2023/10/27 07:26:17;;;;;;;43.10;16.47;;;;;;;-141.97;nan;47638.25;5035318;28;20222;-86
2023/10/27 07:28:43;;;;;;;34.57;16.07;;;;;;;-141.97;nan;47738.19;5042013;28;20166;-87
2023/10/27 07:31:09;;;;;;;38.17;16.73;;;;;;;-141.97;nan;47876.59;5032725;28;20190;-88
2023/10/27 07:33:38;;;;;;;38.33;16.97;;;;;;;-141.97;nan;47619.03;5031983;28;20228;-86
2023/10/27 07:36:04;;;;;;;41.40;17.80;;;;;;;-141.97;nan;47653.63;5013533;28;20185;-90
2023/10/27 07:38:30;;;;;;;34.63;16.73;;;;;;;-141.97;nan;47715.13;5031562;28;20154;-88
2023/10/27 07:40:59;;;;;;;40.43;17.10;;;;;;;-141.97;nan;47638.25;5033136;28;20168;-88
2023/10/27 07:43:25;;;;;;;35.97;16.83;;;;;;;-141.97;nan;47684.38;5014448;28;20170;-84
2023/10/27 07:45:51;;;;;;;38.30;17.50;;;;;;;-141.97;nan;47609.41;5014159;28;20204;-85
2023/10/27 07:48:16;;;;;;;35.60;17.67;;;;;;;-141.97;nan;47857.38;5015122;28;20260;-83
2023/10/27 07:50:42;;;;;;;34.77;17.40;;;;;;;-141.97;nan;47542.16;5033482;28;20170;-85
2023/10/27 07:53:08;;;;;;;35.27;17.40;;;;;;;-141.97;nan;47620.94;5032907;28;20627;-84
2023/10/27 07:55:35;;;;;;;34.23;17.50;;;;;;;-141.97;nan;47680.53;5014305;28;20240;-83
2023/10/27 07:58:00;;;;;;;34.47;17.33;;;;;;;-141.97;nan;47686.31;5032021;28;20534;-84
2023/10/27 08:00:26;;;;;;;36.60;16.63;;;;;;;-141.97;nan;47851.59;5014559;28;20227;-84
2023/10/27 08:02:54;;;;;;;35.30;17.07;;;;;;;-141.97;nan;47665.16;5014996;28;20237;-84
2023/10/27 08:05:20;;;;;;;36.60;16.93;;;;;;;-141.97;nan;47684.38;5003849;28;20233;-84
2023/10/27 08:07:46;;;;;;;34.83;17.90;;;;;;;-141.97;nan;47699.75;5013947;28;20205;-84
2023/10/27 08:10:11;;;;;;;39.00;17.57;;;;;;;-141.97;nan;47870.81;5031569;28;20196;-83
2023/10/27 08:12:37;;;;;;;34.73;16.57;;;;;;;-141.97;nan;47688.22;5013297;28;20186;-84
2023/10/27 08:15:06;;;;;;;33.00;16.43;;;;;;;-141.97;nan;47647.84;5013287;28;20189;-84
2023/10/27 08:17:33;;;;;;;32.10;16.07;;;;;;;-141.97;nan;47672.84;5032261;28;20166;-83
2023/10/27 08:19:58;;;;;;;32.47;16.00;;;;;;;-141.97;nan;47811.25;5035071;28;20166;-83
2023/10/27 08:22:24;;;;;;;34.67;15.50;;;;;;;-141.97;nan;47617.09;5037204;28;20189;-83
2023/10/27 08:24:49;;;;;;;34.67;14.97;;;;;;;-141.97;nan;47742.03;5035638;28;20654;-83
2023/10/27 08:27:14;;;;;;;31.60;14.43;;;;;;;-141.97;nan;47628.63;5019493;28;20192;-83
2023/10/27 08:29:40;;;;;;;29.77;14.07;;;;;;;-141.97;nan;47586.34;5015011;28;20197;-84
2023/10/27 08:32:05;;;;;;;33.57;13.63;;;;;;;-141.97;nan;47561.38;5016281;28;20210;-84
2023/10/27 08:34:31;;;;;;;30.97;12.67;;;;;;;-141.97;nan;47695.91;5018439;28;20189;-84
2023/10/27 08:36:57;;;;;;;28.87;13.07;;;;;;;-141.97;nan;47680.53;5015926;28;20185;-86
2023/10/27 08:39:24;;;;;;;29.93;12.50;;;;;;;-141.97;nan;47567.13;5035871;28;20158;-86
2023/10/27 08:41:49;;;;;;;26.47;12.93;;;;;;;-141.97;nan;47534.44;5018128;28;20247;-88
2023/10/27 08:44:16;;;;;;;31.53;12.97;;;;;;;-141.97;nan;47680.53;5018104;28;20194;-87
2023/10/27 08:46:42;;;;;;;29.07;12.27;;;;;;;-141.97;nan;47657.47;5016357;28;20193;-87
2023/10/27 08:49:08;;;;;;;26.03;11.47;;;;;;;-141.97;nan;47624.78;5025515;28;20229;-88
2023/10/27 08:51:35;;;;;;;25.77;10.93;;;;;;;-141.97;nan;47838.16;5026098;28;20213;-88
2023/10/27 08:54:01;;;;;;;24.23;11.67;;;;;;;-141.97;nan;47490.25;5050651;28;20182;-86
2023/10/27 08:56:27;;;;;;;23.97;11.53;;;;;;;-141.97;nan;47563.28;5015447;28;20244;-89
2023/10/27 08:58:53;;;;;;;26.50;12.50;;;;;;;-141.97;nan;47615.19;5047398;28;20233;-88
2023/10/27 09:01:18;;;;;;;23.43;11.63;;;;;;;-141.97;nan;47655.53;5057111;28;20192;-88
2023/10/27 09:04:11;;;;;;;33.57;12.00;;;;;;;-141.97;nan;47669.00;5064438;28;20174;-88
2023/10/27 09:06:39;;;;;;;22.23;10.90;;;;;;;-141.97;nan;47630.56;5047021;28;20189;-88
2023/10/27 09:09:09;;;;;;;25.57;10.23;;;;;;;-141.97;nan;47715.13;5055817;28;20273;-88
2023/10/27 09:11:43;;;;;;;22.00;11.03;;;;;;;-141.97;nan;47667.06;5029681;28;20257;-87
2023/10/27 09:14:22;;;;;;;21.37;10.90;;;;;;;-141.97;nan;47619.03;5030328;28;20214;-87
2023/10/27 09:16:47;;;;;;;20.53;10.07;;;;;;;-141.97;nan;47622.88;5017667;28;20185;-89
2023/10/27 09:19:24;;;;;;;25.03;10.30;;;;;;;-141.97;nan;47615.19;5015569;28;20166;-87
2023/10/27 09:21:53;;;;;;;25.50;10.57;;;;;;;-141.97;nan;47638.25;5030290;28;20158;-88
2023/10/27 09:24:33;;;;;;;20.40;10.00;;;;;;;-141.97;nan;47684.38;5032003;28;20166;-87
2023/10/27 09:26:59;;;;;;;16.77;9.97;;;;;;;-141.97;nan;47488.31;5031402;28;20173;-87
2023/10/27 09:29:27;;;;;;;23.97;9.87;;;;;;;-141.97;nan;47757.41;5031427;28;20178;-87
2023/10/27 09:31:53;;;;;;;20.00;9.70;;;;;;;-141.97;nan;47724.75;5017485;28;20710;-88
2023/10/27 09:34:24;;;;;;;22.63;9.80;;;;;;;-141.97;nan;47499.84;5035159;28;20173;-88
2023/10/27 09:36:54;;;;;;;20.33;9.90;;;;;;;-141.97;nan;47628.63;5038311;28;20181;-89
2023/10/27 09:39:24;;;;;;;19.77;9.63;;;;;;;-141.97;nan;47786.25;5035457;28;20190;-87
2023/10/27 09:41:49;;;;;;;18.50;9.33;;;;;;;-141.97;nan;47619.03;5036307;28;20166;-87
2023/10/27 09:44:16;;;;;;;20.03;10.10;;;;;;;-141.97;nan;47446.03;5035628;28;20166;-86
2023/10/27 09:47:02;;;;;;;23.03;9.80;;;;;;;-141.97;nan;47776.63;5016431;28;20261;-88
2023/10/27 09:49:35;;;;;;;21.40;9.53;;;;;;;-141.97;nan;47659.38;5058269;28;20162;-87
2023/10/27 09:52:01;;;;;;;19.47;9.43;;;;;;;-141.97;nan;47651.69;5021703;28;20289;-87
2023/10/27 09:54:32;;;;;;;21.70;9.10;;;;;;;-141.97;nan;47628.63;5017750;28;20202;-88
2023/10/27 09:57:02;;;;;;;17.60;8.87;;;;;;;-141.97;nan;47526.75;5034017;28;20189;-87
2023/10/27 09:59:30;;;;;;;23.17;8.87;;;;;;;-141.97;nan;47588.28;5037157;28;20169;-86
2023/10/27 10:01:57;;;;;;;17.50;8.37;;;;;;;-141.97;nan;47567.13;5040596;28;20150;-87
2023/10/27 10:04:53;;;;;;;21.60;8.07;;;;;;;-141.97;nan;47619.03;5025687;28;20234;-87
2023/10/27 10:07:29;;;;;;;17.80;7.90;;;;;;;-141.97;nan;47584.44;5041436;28;20204;-87
2023/10/27 10:09:54;;;;;;;16.92;7.93;;;;;;;-141.97;nan;47540.22;5033911;28;20179;-88
2023/10/27 10:12:20;;;;;;;21.88;8.52;;;;;;;-141.97;nan;47509.47;5047816;28;20185;-88
2023/10/27 10:14:48;;;;;;;17.05;7.63;;;;;;;-141.97;nan;47565.22;5038109;28;20265;-88
2023/10/27 10:17:36;;;;;;;14.93;7.88;;;;;;;-141.97;nan;47580.59;5038541;28;20173;-86
2023/10/27 10:20:02;;;;;;;14.88;7.90;;;;;;;-141.97;nan;47549.84;5038981;28;20173;-88
2023/10/27 10:22:40;;;;;;;18.48;8.93;;;;;;;-141.97;nan;47632.47;5018117;28;20243;-87
2023/10/27 10:25:21;;;;;;;19.80;9.05;;;;;;;-141.97;nan;47647.84;5015242;28;20175;-88
2023/10/27 10:28:16;;;;;;;19.95;9.00;;;;;;;-141.97;nan;47624.78;5028847;28;20176;-88
2023/10/27 10:30:46;;;;;;;16.48;8.82;;;;;;;-141.97;nan;47609.41;5037316;28;20569;-88
2023/10/27 10:33:25;;;;;;;23.88;9.15;;;;;;;-141.97;nan;47626.72;5052571;28;20170;-87
2023/10/27 10:35:52;;;;;;;23.52;9.10;;;;;;;-141.97;nan;47624.78;5033268;28;20161;-85
2023/10/27 10:38:23;;;;;;;19.48;8.60;;;;;;;-141.97;nan;47622.88;5032230;28;20172;-86
2023/10/27 10:40:55;;;;;;;14.98;8.40;;;;;;;-141.97;nan;47584.44;5015024;28;20637;-85
2023/10/27 10:43:32;;;;;;;18.83;8.90;;;;;;;-141.97;nan;47667.06;5032868;28;20176;-87
2023/10/27 10:46:00;;;;;;;18.80;8.73;;;;;;;-141.97;nan;47561.38;5033311;28;20237;-87
2023/10/27 10:48:27;;;;;;;18.35;8.80;;;;;;;-141.97;nan;47592.13;5040376;28;20173;-86
2023/10/27 10:51:03;;;;;;;21.17;8.15;;;;;;;-141.97;nan;47603.66;5039553;28;20171;-88
2023/10/27 10:53:30;;;;;;;17.73;8.32;;;;;;;-141.97;nan;47634.41;5037332;28;20167;-88
2023/10/27 10:56:16;;;;;;;18.20;8.77;;;;;;;-141.97;nan;47653.63;5050691;28;20699;-87
2023/10/27 10:58:42;;;;;;;20.20;8.77;;;;;;;-141.97;nan;47655.53;4989736;28;20199;-86
2023/10/27 11:01:16;;;;;;;18.13;8.80;;;;;;;-141.97;nan;47815.09;4994463;28;20266;-87
2023/10/27 11:03:47;;;;;;;24.98;11.00;;;;;;;-141.97;nan;47561.38;4985037;28;20172;-86
2023/10/27 11:06:13;;;;;;;20.48;8.95;;;;;;;-141.97;nan;47592.13;4958782;28;20234;-88
2023/10/27 11:08:40;;;;;;;21.83;8.55;;;;;;;-141.97;nan;47632.47;4962045;28;20234;-87
2023/10/27 11:11:07;;;;;;;18.23;7.70;;;;;;;-141.97;nan;47482.56;4959350;28;20221;-89
2023/10/27 11:13:39;;;;;;;20.13;8.07;;;;;;;-141.97;nan;47505.63;4982124;28;20314;-86
2023/10/27 11:16:17;;;;;;;20.30;7.95;;;;;;;-141.97;nan;47620.94;4983516;28;20165;-88
2023/10/27 11:18:44;;;;;;;18.50;7.90;;;;;;;-141.97;nan;47786.25;4960709;28;20247;-87